Jervis Bay, Australia
Current Conditions -  °F | °C
As of 5:28 AM on Saturday 25 Oct 2014 (Local Time) from YSNW Reporting Station
Clear Clear  
Wind Chill: 61°   Ceiling: Unl
Heat Index: 61°   Visibility: 6mi
Dew Point: 61°   Wind: 5mph
Humidity: 100%   Direction: 250°WSW
Pressure: 29.91"   Gusts: NA
Location:  35.13°S, 150.71°E
Report Text: YSNW 241828Z AUTO 25004KT 9999 // NCD 16/16 Q1013
Loading
Personal Weather Stations






























Interactive Weather Map
Tropical Storm Tracking
New forecast layout! Learn more

10-Day Weather Forecast

Advertisements
Track Severe Weather on mobile